createdAt,value
2017-07-31T06:18:20.307Z,1011.3
2017-07-31T06:19:21.713Z,1011.4
2017-07-31T06:20:43.670Z,1011.4
2017-07-31T06:21:45.074Z,1011.5
2017-07-31T06:23:06.778Z,1011.6
2017-07-31T06:24:08.183Z,1011.6
2017-07-31T06:25:30.186Z,1011.7
2017-07-31T06:26:31.591Z,1011.8
2017-07-31T06:27:53.549Z,1011.9
2017-07-31T06:28:54.953Z,1012.0
2017-07-31T06:30:16.911Z,1012.2
2017-07-31T06:31:18.321Z,1012.3
2017-07-31T06:32:40.195Z,1012.5
2017-07-31T06:33:41.614Z,1012.6
2017-07-31T06:35:03.632Z,1012.9
2017-07-31T06:36:05.037Z,1013.0
2017-07-31T06:37:26.992Z,1013.2
2017-07-31T06:38:28.400Z,1013.4
2017-07-31T06:39:50.355Z,1013.8
2017-07-31T06:40:51.760Z,1014.0
2017-07-31T06:42:13.715Z,1014.3
2017-07-31T06:43:15.127Z,1014.5
2017-07-31T06:44:37.076Z,1014.6
2017-07-31T06:45:38.483Z,1014.6
2017-07-31T06:47:00.437Z,1014.5
2017-07-31T06:48:01.839Z,1014.5
2017-07-31T06:49:23.798Z,1014.4
2017-07-31T06:50:25.200Z,1014.5
2017-07-31T06:51:47.154Z,1014.5
2017-07-31T06:52:48.568Z,1014.5
2017-07-31T06:54:10.447Z,1014.7
2017-07-31T06:55:11.857Z,1014.9
2017-07-31T06:56:33.883Z,1015.2
2017-07-31T06:57:35.285Z,1015.4
2017-07-31T06:58:57.035Z,1015.6
2017-07-31T06:59:58.467Z,1015.7
2017-07-31T07:01:20.122Z,1016.0
2017-07-31T07:02:21.530Z,1016.0
2017-07-31T07:03:43.552Z,1016.4
2017-07-31T07:04:44.980Z,1016.7
2017-07-31T07:06:06.846Z,1017.4
2017-07-31T07:07:08.249Z,1017.5
2017-07-31T07:08:30.068Z,1017.5
2017-07-31T07:09:31.474Z,1017.8
2017-07-31T07:10:53.363Z,1018.3
2017-07-31T07:11:54.771Z,1018.4
2017-07-31T07:13:16.796Z,1018.8
2017-07-31T07:14:18.193Z,1019.1
2017-07-31T07:15:39.947Z,1019.4
2017-07-31T07:16:41.350Z,1019.4
2017-07-31T07:18:03.330Z,1019.7
2017-07-31T07:19:04.849Z,1019.9
2017-07-31T07:20:26.893Z,1020.2
2017-07-31T07:21:28.302Z,1020.5
2017-07-31T07:22:50.231Z,1020.9
2017-07-31T07:23:51.637Z,1020.7
2017-07-31T07:25:53.118Z,1020.7
2017-07-31T07:26:54.547Z,1021.0
2017-07-31T07:28:16.480Z,1021.1
2017-07-31T07:29:17.885Z,1021.0
2017-07-31T07:30:39.842Z,1020.8
2017-07-31T07:31:41.257Z,1020.7
2017-07-31T07:33:42.976Z,1020.5
2017-07-31T07:34:44.383Z,1020.5
2017-07-31T07:36:06.296Z,1020.5
2017-07-31T07:37:07.697Z,1020.4
2017-07-31T07:38:29.657Z,1020.7
2017-07-31T07:39:31.059Z,1021.1
2017-07-31T07:40:53.036Z,1021.4
2017-07-31T07:41:54.445Z,1021.5
2017-07-31T07:43:16.376Z,1021.8
2017-07-31T07:44:17.783Z,1022.0
2017-07-31T07:45:39.734Z,1022.3
2017-07-31T07:46:41.144Z,1022.6
2017-07-31T07:48:03.097Z,1022.9
2017-07-31T07:49:04.598Z,1023.2
2017-07-31T07:50:26.460Z,1023.5
2017-07-31T07:51:27.866Z,1023.6
2017-07-31T07:52:49.818Z,1023.9
2017-07-31T07:53:51.250Z,1024.2
2017-07-31T07:55:13.187Z,1024.6
2017-07-31T07:56:14.586Z,1024.8
2017-07-31T07:57:36.543Z,1024.7
2017-07-31T07:58:37.945Z,1024.9
2017-07-31T07:59:59.913Z,1025.5
2017-07-31T08:01:01.320Z,1025.8
2017-07-31T08:02:23.260Z,1026.1
2017-07-31T08:03:24.670Z,1026.6
2017-07-31T08:04:46.618Z,1026.5
2017-07-31T08:05:48.027Z,1026.8
2017-07-31T08:07:09.983Z,1027.1
2017-07-31T08:08:11.391Z,1027.4
2017-07-31T08:09:33.343Z,1027.7
2017-07-31T08:10:34.749Z,1028.0
2017-07-31T08:11:56.705Z,1028.3
2017-07-31T08:12:58.108Z,1028.2
2017-07-31T08:14:20.065Z,1028.4
2017-07-31T08:15:21.470Z,1028.6
2017-07-31T08:16:43.183Z,1029.0
2017-07-31T08:17:44.596Z,1029.2
2017-07-31T08:19:06.330Z,1029.2
2017-07-31T08:20:07.750Z,1029.4
2017-07-31T08:21:29.495Z,1029.5
2017-07-31T08:22:30.905Z,1029.5
2017-07-31T08:23:52.893Z,1029.6
2017-07-31T08:24:54.301Z,1029.8
2017-07-31T08:26:16.259Z,1030.0
2017-07-31T08:27:17.664Z,1030.1
2017-07-31T08:28:39.617Z,1030.4
2017-07-31T08:29:41.025Z,1030.6
2017-07-31T08:31:02.736Z,1030.9
2017-07-31T08:32:04.140Z,1031.1
2017-07-31T08:33:26.430Z,1031.5
2017-07-31T08:34:27.843Z,1031.7
2017-07-31T08:35:49.697Z,1032.0
2017-07-31T08:36:51.107Z,1032.3
2017-07-31T08:38:13.058Z,1032.7
2017-07-31T08:39:14.466Z,1033.0
2017-07-31T08:40:36.422Z,1033.6
2017-07-31T08:41:37.829Z,1034.1
2017-07-31T08:42:59.776Z,1034.8
2017-07-31T08:44:01.187Z,1035.3
2017-07-31T08:45:23.138Z,1036.1
2017-07-31T08:46:24.549Z,1036.6
2017-07-31T08:47:46.500Z,1037.6
2017-07-31T08:48:47.910Z,1038.2
2017-07-31T08:50:09.861Z,1039.4
2017-07-31T08:51:11.275Z,1040.2
2017-07-31T08:52:32.971Z,1040.3
2017-07-31T08:53:34.381Z,1040.6
2017-07-31T08:54:56.378Z,1041.3
2017-07-31T08:55:57.786Z,1041.4
2017-07-31T08:57:19.738Z,1041.2
2017-07-31T08:58:21.163Z,1041.3
2017-07-31T08:59:43.058Z,1041.0
2017-07-31T09:00:44.473Z,1040.9
2017-07-31T09:02:06.485Z,1040.7
2017-07-31T09:03:07.894Z,1040.7
2017-07-31T09:04:29.640Z,1041.1
2017-07-31T09:05:31.030Z,1041.7
2017-07-31T09:06:52.977Z,1043.4
2017-07-31T09:07:54.390Z,1045.2
2017-07-31T09:09:16.336Z,1047.5
2017-07-31T09:10:17.748Z,1049.2
2017-07-31T09:11:39.699Z,1051.0
2017-07-31T09:12:41.111Z,1052.2
2017-07-31T09:14:03.059Z,1054.1
2017-07-31T09:15:04.471Z,1057.5
2017-07-31T09:16:26.420Z,1063.5
2017-07-31T09:17:27.834Z,1064.5
2017-07-31T09:18:49.779Z,1070.1
2017-07-31T09:19:51.193Z,1068.7
2017-07-31T09:21:13.143Z,1073.4
2017-07-31T09:22:14.557Z,1080.1
2017-07-31T09:23:36.468Z,1083.8
2017-07-31T09:24:37.884Z,1086.0
2017-07-31T09:25:59.626Z,1089.3
2017-07-31T09:27:01.052Z,1091.0
2017-07-31T09:28:22.779Z,1084.2
2017-07-31T09:29:24.196Z,1082.6
2017-07-31T09:30:45.933Z,1091.6
2017-07-31T09:31:47.350Z,1096.8
2017-07-31T09:33:09.092Z,1090.2
2017-07-31T09:34:10.507Z,1085.6
2017-07-31T09:35:32.248Z,1088.3
2017-07-31T09:36:33.659Z,1095.1
2017-07-31T09:37:55.406Z,1098.1
2017-07-31T09:38:56.828Z,1090.8
2017-07-31T09:40:18.561Z,1089.0
2017-07-31T09:41:19.975Z,1083.2
2017-07-31T09:42:41.727Z,1082.1
2017-07-31T09:43:43.171Z,1083.6
2017-07-31T09:45:04.874Z,1085.1
2017-07-31T09:46:06.293Z,1086.0
2017-07-31T09:47:28.036Z,1087.2
2017-07-31T09:48:29.460Z,1088.0
2017-07-31T09:49:51.191Z,1087.8
2017-07-31T09:50:52.604Z,1085.1
2017-07-31T09:52:14.349Z,1085.2
2017-07-31T09:53:15.762Z,1084.6
2017-07-31T09:54:37.504Z,1084.8
2017-07-31T09:55:38.923Z,1085.6
2017-07-31T09:57:00.719Z,1086.0
2017-07-31T09:58:02.134Z,1085.2
2017-07-31T09:59:23.811Z,1084.1
2017-07-31T10:00:25.228Z,1082.9
2017-07-31T10:01:46.967Z,1081.0
2017-07-31T10:02:48.385Z,1077.3
2017-07-31T10:04:10.126Z,1074.6
2017-07-31T10:05:11.543Z,1073.1
2017-07-31T10:06:33.281Z,1074.1
2017-07-31T10:07:34.697Z,1076.2
2017-07-31T10:08:56.439Z,1079.9
2017-07-31T10:09:57.861Z,1082.1
2017-07-31T10:10:59.271Z,1090.8
2017-07-31T10:12:00.732Z,1104.1
2017-07-31T10:13:02.148Z,1107.0
2017-07-31T10:14:03.613Z,1110.0
2017-07-31T10:15:05.042Z,1109.8
2017-07-31T10:16:06.499Z,1112.5
2017-07-31T10:17:07.916Z,1113.8
2017-07-31T10:18:09.335Z,1115.5
2017-07-31T10:19:10.820Z,1115.9
2017-07-31T10:20:12.235Z,1119.1
2017-07-31T10:21:13.655Z,1120.3
2017-07-31T10:22:15.136Z,1122.1
2017-07-31T10:23:16.557Z,1124.4
2017-07-31T10:24:18.019Z,1122.4
2017-07-31T10:25:19.437Z,1122.6
2017-07-31T10:26:20.901Z,1121.5
2017-07-31T10:27:22.319Z,1117.6
2017-07-31T10:28:23.738Z,1121.5
2017-07-31T10:29:25.223Z,1115.5
2017-07-31T10:30:26.651Z,1116.6
2017-07-31T10:31:28.063Z,1118.1
2017-07-31T10:32:29.544Z,1122.4
2017-07-31T10:33:30.969Z,1122.9
2017-07-31T10:34:32.383Z,1121.1
2017-07-31T10:35:33.865Z,1121.1
2017-07-31T10:36:35.284Z,1113.2
2017-07-31T10:37:36.704Z,1109.3
2017-07-31T10:38:38.183Z,1099.1
2017-07-31T10:39:39.603Z,1087.9
2017-07-31T10:40:41.083Z,1084.6
2017-07-31T10:41:42.501Z,1084.7
2017-07-31T10:42:43.952Z,1081.6
2017-07-31T10:43:45.375Z,1078.4
2017-07-31T10:44:46.848Z,1073.3
2017-07-31T10:45:48.245Z,1071.2
2017-07-31T10:46:49.709Z,1070.3
2017-07-31T10:47:51.125Z,1071.7
2017-07-31T10:48:52.590Z,1071.7
2017-07-31T10:49:54.007Z,1067.0
2017-07-31T10:50:55.472Z,1063.7
2017-07-31T10:51:56.888Z,1061.8
2017-07-31T10:52:58.304Z,1061.3
2017-07-31T10:53:59.795Z,1060.1
2017-07-31T10:55:01.212Z,1058.6
2017-07-31T10:56:02.630Z,1055.5
2017-07-31T10:57:04.115Z,1054.4
2017-07-31T10:58:05.533Z,1054.4
2017-07-31T10:59:06.953Z,1054.2
2017-07-31T11:00:08.437Z,1054.3
2017-07-31T11:01:09.850Z,1054.3
2017-07-31T11:02:11.265Z,1054.5
2017-07-31T11:03:12.962Z,1054.8
2017-07-31T11:04:14.383Z,1056.0
2017-07-31T11:05:15.845Z,1057.3
2017-07-31T11:06:17.263Z,1058.9
2017-07-31T11:07:18.684Z,1060.1
2017-07-31T11:08:20.167Z,1062.9
2017-07-31T11:09:21.585Z,1063.6
2017-07-31T11:10:23.007Z,1066.5
2017-07-31T11:11:24.488Z,1068.9
2017-07-31T11:12:25.908Z,1070.9
2017-07-31T11:13:27.330Z,1072.7
2017-07-31T11:14:28.810Z,1074.7
2017-07-31T11:15:30.229Z,1074.7
2017-07-31T11:16:31.666Z,1073.3
2017-07-31T11:17:33.131Z,1076.9
2017-07-31T11:18:34.550Z,1079.4
2017-07-31T11:19:35.973Z,1083.4
2017-07-31T11:20:37.453Z,1087.4
2017-07-31T11:21:38.873Z,1091.4
2017-07-31T11:22:40.293Z,1095.2
2017-07-31T11:23:41.774Z,1097.1
2017-07-31T11:24:43.192Z,1091.1
2017-07-31T11:25:44.657Z,1089.4
2017-07-31T11:26:46.089Z,1088.6
2017-07-31T11:27:47.503Z,1086.4
2017-07-31T11:28:48.977Z,1086.8
2017-07-31T11:29:50.400Z,1087.3
2017-07-31T11:30:51.815Z,1087.8
2017-07-31T11:31:53.302Z,1087.6
2017-07-31T11:32:54.720Z,1088.5
2017-07-31T11:33:56.938Z,1089.1
2017-07-31T11:34:58.364Z,1090.1
2017-07-31T11:36:00.098Z,1090.2
2017-07-31T11:37:01.517Z,1086.5
2017-07-31T11:38:02.933Z,1079.8
2017-07-31T11:39:04.413Z,1074.0
2017-07-31T11:40:05.837Z,1071.5
2017-07-31T11:41:07.257Z,1071.4
2017-07-31T11:42:08.755Z,1069.9
2017-07-31T11:43:10.175Z,1068.8
2017-07-31T11:44:11.570Z,1066.1
2017-07-31T11:45:13.155Z,1061.9
2017-07-31T11:46:14.574Z,1057.4
2017-07-31T11:47:15.992Z,1053.7
2017-07-31T11:48:17.683Z,1049.9
2017-07-31T11:49:19.107Z,1046.5
2017-07-31T11:50:20.514Z,1043.3
2017-07-31T11:51:22.209Z,1043.6
2017-07-31T11:52:23.633Z,1043.6
2017-07-31T11:53:25.042Z,1039.9
2017-07-31T11:54:26.733Z,1037.1
2017-07-31T11:55:28.152Z,1034.0
2017-07-31T11:56:29.571Z,1031.4
2017-07-31T11:57:31.259Z,1032.8
2017-07-31T11:58:32.680Z,1032.7
2017-07-31T11:59:34.345Z,1033.6
2017-07-31T12:00:35.761Z,1031.6
2017-07-31T12:01:37.429Z,1030.8
2017-07-31T12:02:38.851Z,1033.8
2017-07-31T12:03:40.271Z,1034.5
2017-07-31T12:04:41.960Z,1033.4
2017-07-31T12:05:43.375Z,1033.5
2017-07-31T12:06:44.791Z,1033.4
2017-07-31T12:07:46.488Z,1033.9
2017-07-31T12:08:47.901Z,1033.5
2017-07-31T12:09:49.774Z,1032.6
2017-07-31T12:10:51.186Z,1028.8
2017-07-31T12:11:52.859Z,1026.1
2017-07-31T12:12:54.270Z,1024.5
2017-07-31T12:13:55.688Z,1023.4
2017-07-31T12:14:57.283Z,1021.3
2017-07-31T12:15:58.697Z,1020.2
2017-07-31T12:17:00.112Z,1019.6
2017-07-31T12:18:01.707Z,1020.5
2017-07-31T12:19:03.123Z,1022.1
2017-07-31T12:20:04.792Z,1023.2
2017-07-31T12:21:06.207Z,1024.7
2017-07-31T12:22:07.879Z,1026.4
2017-07-31T12:23:09.296Z,1027.5
2017-07-31T12:24:10.713Z,1027.6
2017-07-31T12:25:12.402Z,1027.1
2017-07-31T12:26:13.824Z,1026.6
2017-07-31T12:27:15.237Z,1026.5
2017-07-31T12:28:16.936Z,1026.3
2017-07-31T12:29:18.350Z,1025.9
2017-07-31T12:30:19.762Z,1025.5
2017-07-31T12:31:21.457Z,1025.2
2017-07-31T12:32:22.874Z,1024.5
2017-07-31T12:33:24.291Z,1024.3
2017-07-31T12:34:25.982Z,1023.5
2017-07-31T12:35:27.395Z,1022.5
2017-07-31T12:36:28.809Z,1020.5
2017-07-31T12:37:30.517Z,1019.0
2017-07-31T12:38:31.937Z,1017.2
2017-07-31T12:39:33.352Z,1019.9
2017-07-31T12:40:35.037Z,1019.4
2017-07-31T12:41:36.454Z,1021.3
2017-07-31T12:42:38.119Z,1022.9
2017-07-31T12:43:39.535Z,1023.7
2017-07-31T12:44:41.202Z,1021.4
2017-07-31T12:45:42.624Z,1020.2
2017-07-31T12:46:44.285Z,1020.2
2017-07-31T12:47:45.698Z,1021.5
2017-07-31T12:48:47.112Z,1023.7
2017-07-31T12:49:48.816Z,1026.1
2017-07-31T12:50:50.240Z,1028.0
2017-07-31T12:51:51.648Z,1029.6
2017-07-31T12:52:53.338Z,1030.6
2017-07-31T12:53:54.758Z,1031.5
2017-07-31T12:54:56.422Z,1032.5
2017-07-31T12:55:57.837Z,1033.7
2017-07-31T12:56:59.529Z,1035.2
2017-07-31T12:58:00.923Z,1034.8
2017-07-31T12:59:02.503Z,1031.9
2017-07-31T13:00:03.923Z,1034.2
2017-07-31T13:01:05.474Z,1034.8
2017-07-31T13:02:06.895Z,1034.9
2017-07-31T13:03:08.567Z,1034.5
2017-07-31T13:04:09.981Z,1034.0
2017-07-31T13:05:11.658Z,1033.0
2017-07-31T13:06:13.074Z,1031.3
2017-07-31T13:07:14.734Z,1029.6
2017-07-31T13:08:16.153Z,1028.0
2017-07-31T13:09:17.820Z,1026.5
2017-07-31T13:10:19.238Z,1025.2
2017-07-31T13:11:20.904Z,1023.8
2017-07-31T13:12:22.320Z,1022.1
2017-07-31T13:13:23.988Z,1020.5
2017-07-31T13:14:25.417Z,1019.5
2017-07-31T13:15:27.075Z,1018.5
2017-07-31T13:16:28.495Z,1017.7
2017-07-31T13:17:30.159Z,1016.8
2017-07-31T13:18:31.579Z,1015.6
2017-07-31T13:19:32.986Z,1013.6
2017-07-31T13:20:34.685Z,1011.8
2017-07-31T13:21:36.100Z,1010.3
2017-07-31T13:22:37.519Z,1008.8
2017-07-31T13:23:39.232Z,1007.5
2017-07-31T13:24:40.623Z,1006.1
2017-07-31T13:25:42.041Z,1004.2
2017-07-31T13:26:43.900Z,1002.9
2017-07-31T13:27:45.310Z,1001.9
2017-07-31T13:28:46.723Z,1000.7
2017-07-31T13:29:48.260Z,999.7
2017-07-31T13:30:49.676Z,998.8
2017-07-31T13:31:51.341Z,998.0
2017-07-31T13:32:52.758Z,997.3
2017-07-31T13:33:54.429Z,996.8
2017-07-31T13:34:55.850Z,996.3
2017-07-31T13:35:57.262Z,995.7
2017-07-31T13:36:58.956Z,995.1
2017-07-31T13:38:00.366Z,994.5
2017-07-31T13:39:01.778Z,994.0
2017-07-31T13:40:03.482Z,993.6
2017-07-31T13:41:04.896Z,993.2
2017-07-31T13:42:06.311Z,992.8
2017-07-31T13:43:07.723Z,992.5
2017-07-31T13:44:09.088Z,991.7
2017-07-31T13:45:10.682Z,991.3
2017-07-31T13:46:12.095Z,990.8
2017-07-31T13:47:13.510Z,990.4
2017-07-31T13:48:15.219Z,990.0
2017-07-31T13:49:16.632Z,989.6
2017-07-31T13:50:18.046Z,989.2
2017-07-31T13:51:19.734Z,988.7
2017-07-31T13:52:21.146Z,988.1
2017-07-31T13:53:22.555Z,987.4
2017-07-31T13:54:24.255Z,987.0
2017-07-31T13:55:25.851Z,986.5
2017-07-31T13:56:27.555Z,986.1
2017-07-31T13:57:28.963Z,985.7
2017-07-31T13:58:30.638Z,985.4
2017-07-31T13:59:32.049Z,984.9
2017-07-31T14:00:33.748Z,984.2
2017-07-31T14:01:35.160Z,983.7
2017-07-31T14:02:36.806Z,983.3
2017-07-31T14:03:38.219Z,983.0
2017-07-31T14:04:39.632Z,982.5
2017-07-31T14:05:41.332Z,982.2
2017-07-31T14:06:42.743Z,981.9
2017-07-31T14:07:44.162Z,981.6
2017-07-31T14:08:45.858Z,981.4
2017-07-31T14:09:47.374Z,981.2
2017-07-31T14:10:48.943Z,981.2
2017-07-31T14:11:50.358Z,981.2
2017-07-31T14:12:52.026Z,981.2
2017-07-31T14:13:53.439Z,981.2
2017-07-31T14:14:55.113Z,981.0
2017-07-31T14:15:56.524Z,980.8
2017-07-31T14:16:59.019Z,980.7
2017-07-31T14:18:00.433Z,980.5
2017-07-31T14:19:02.108Z,980.5
2017-07-31T14:20:03.530Z,980.4
2017-07-31T14:21:05.195Z,980.2
2017-07-31T14:22:06.600Z,980.1
2017-07-31T14:23:08.275Z,980.1
2017-07-31T14:24:09.687Z,979.9
2017-07-31T14:25:11.099Z,980.1
2017-07-31T14:26:12.800Z,980.3
2017-07-31T14:27:14.221Z,980.4
2017-07-31T14:28:15.620Z,980.5
2017-07-31T14:29:17.123Z,980.4
2017-07-31T14:30:18.534Z,980.4
2017-07-31T14:31:20.206Z,980.3
2017-07-31T14:32:21.617Z,980.3
2017-07-31T14:33:23.292Z,980.1
2017-07-31T14:34:24.701Z,980.0
2017-07-31T14:35:26.116Z,980.0
2017-07-31T14:36:27.616Z,979.9
2017-07-31T14:37:29.049Z,979.8
2017-07-31T14:38:30.457Z,979.7
2017-07-31T14:39:32.140Z,979.6
2017-07-31T14:40:33.549Z,979.6
2017-07-31T14:41:35.226Z,979.7
2017-07-31T14:42:36.634Z,979.8
2017-07-31T14:43:38.310Z,979.8
2017-07-31T14:44:39.737Z,979.8
2017-07-31T14:45:41.397Z,979.8
2017-07-31T14:46:42.817Z,979.8
2017-07-31T14:47:44.422Z,979.9
2017-07-31T14:48:45.845Z,980.0
2017-07-31T14:49:47.294Z,980.1
2017-07-31T14:50:48.701Z,980.1
2017-07-31T14:51:50.110Z,980.0
2017-07-31T14:52:51.622Z,979.9
2017-07-31T14:53:53.037Z,979.9
2017-07-31T14:54:54.449Z,980.0
2017-07-31T14:55:55.940Z,980.0
2017-07-31T14:56:57.350Z,980.2
2017-07-31T14:57:58.756Z,980.2
2017-07-31T14:59:00.161Z,980.2
2017-07-31T15:00:01.574Z,980.3
2017-07-31T15:01:03.346Z,980.5
2017-07-31T15:02:04.756Z,980.7
2017-07-31T15:03:06.170Z,980.7
2017-07-31T15:04:07.666Z,980.6
2017-07-31T15:05:09.076Z,980.6
2017-07-31T15:06:10.485Z,980.6
2017-07-31T15:07:11.988Z,980.6
2017-07-31T15:08:13.407Z,980.7
2017-07-31T15:09:14.923Z,980.9
2017-07-31T15:10:16.545Z,981.1
2017-07-31T15:11:17.954Z,981.3
2017-07-31T15:12:19.399Z,981.4
2017-07-31T15:13:20.809Z,981.6
2017-07-31T15:14:22.280Z,981.8
2017-07-31T15:15:23.719Z,982.1
2017-07-31T15:16:25.131Z,982.2
2017-07-31T15:17:26.599Z,982.4
2017-07-31T15:18:28.114Z,982.3
2017-07-31T15:19:29.537Z,982.2
2017-07-31T15:20:31.193Z,982.3
2017-07-31T15:21:32.606Z,982.4
2017-07-31T15:22:34.236Z,982.3
2017-07-31T15:23:35.647Z,982.3
2017-07-31T15:24:37.149Z,982.3
2017-07-31T15:25:38.556Z,982.2
2017-07-31T15:26:40.245Z,982.3
2017-07-31T15:27:41.652Z,982.2
2017-07-31T15:28:43.321Z,982.3
2017-07-31T15:29:44.733Z,982.3
2017-07-31T15:30:46.146Z,982.3
2017-07-31T15:31:47.653Z,982.5
2017-07-31T15:32:49.067Z,982.7
2017-07-31T15:33:50.480Z,982.9
2017-07-31T15:34:52.056Z,983.0
2017-07-31T15:35:53.422Z,983.0
2017-07-31T15:36:54.832Z,983.1
2017-07-31T15:37:56.489Z,983.3
2017-07-31T15:38:57.901Z,983.7
2017-07-31T15:39:59.318Z,984.0
2017-07-31T15:41:00.812Z,984.2
2017-07-31T15:42:02.224Z,984.4
2017-07-31T15:43:03.686Z,984.6
2017-07-31T15:44:05.338Z,984.8
2017-07-31T15:45:07.370Z,984.9
2017-07-31T15:46:09.006Z,985.0
2017-07-31T15:47:10.688Z,985.1
2017-07-31T15:48:12.090Z,985.1
2017-07-31T15:49:13.767Z,985.1
2017-07-31T15:50:15.185Z,985.1
2017-07-31T15:51:16.908Z,985.2
2017-07-31T15:52:18.326Z,985.2
2017-07-31T15:53:19.935Z,985.2
2017-07-31T15:54:21.339Z,985.1
2017-07-31T15:55:22.815Z,985.1
2017-07-31T15:56:24.225Z,985.0
2017-07-31T15:57:25.901Z,985.0
2017-07-31T15:58:27.309Z,985.0
2017-07-31T15:59:29.006Z,984.9
2017-07-31T16:00:30.893Z,984.9
2017-07-31T16:01:32.300Z,984.9
2017-07-31T16:02:33.923Z,985.0
2017-07-31T16:03:35.335Z,985.0
2017-07-31T16:04:36.744Z,985.1
2017-07-31T16:05:38.244Z,985.3
2017-07-31T16:06:39.653Z,985.5
2017-07-31T16:07:41.094Z,985.7
2017-07-31T16:08:42.577Z,985.9
2017-07-31T16:09:43.974Z,986.0
2017-07-31T16:10:45.387Z,986.1
2017-07-31T16:11:46.923Z,986.2
2017-07-31T16:12:48.328Z,986.4
2017-07-31T16:13:49.741Z,986.6
2017-07-31T16:14:51.412Z,986.8
2017-07-31T16:15:52.822Z,986.9
2017-07-31T16:16:54.227Z,987.1
2017-07-31T16:17:55.744Z,987.3
2017-07-31T16:18:57.164Z,987.4
2017-07-31T16:19:58.579Z,987.6
2017-07-31T16:21:00.058Z,987.7
2017-07-31T16:22:01.488Z,987.8
2017-07-31T16:23:03.146Z,987.9
2017-07-31T16:24:04.604Z,988.1
2017-07-31T16:25:06.229Z,988.2
2017-07-31T16:26:07.638Z,988.4
2017-07-31T16:27:09.056Z,988.5
2017-07-31T16:28:10.547Z,988.8
2017-07-31T16:29:11.957Z,988.9
2017-07-31T16:30:13.386Z,989.1
2017-07-31T16:31:14.879Z,989.3
2017-07-31T16:32:16.289Z,989.4
2017-07-31T16:33:17.707Z,989.4
2017-07-31T16:34:19.188Z,989.5
2017-07-31T16:35:20.605Z,989.7
2017-07-31T16:36:22.063Z,989.7
2017-07-31T16:37:23.508Z,989.8
2017-07-31T16:38:24.946Z,989.8
2017-07-31T16:39:26.595Z,989.8
2017-07-31T16:40:28.011Z,989.8
2017-07-31T16:41:29.422Z,989.7
2017-07-31T16:42:30.933Z,989.7
2017-07-31T16:43:32.345Z,989.8
2017-07-31T16:44:33.753Z,989.8
2017-07-31T16:45:35.240Z,989.8
2017-07-31T16:46:36.645Z,989.9
2017-07-31T16:47:38.057Z,989.9
2017-07-31T16:48:39.557Z,989.9
2017-07-31T16:49:41.378Z,989.9
2017-07-31T16:50:42.788Z,989.9
2017-07-31T16:51:44.288Z,989.8
2017-07-31T16:52:45.692Z,989.7
2017-07-31T16:53:47.166Z,989.7
2017-07-31T16:54:48.611Z,989.7
2017-07-31T16:55:50.252Z,989.6
2017-07-31T16:56:51.664Z,989.6
2017-07-31T16:57:53.134Z,989.6
2017-07-31T16:58:54.541Z,989.5
2017-07-31T16:59:56.013Z,989.6
2017-07-31T17:00:57.421Z,989.6
2017-07-31T17:01:58.894Z,989.5
2017-07-31T17:03:00.308Z,989.5
2017-07-31T17:04:01.774Z,989.6
2017-07-31T17:05:03.183Z,989.6
2017-07-31T17:06:04.591Z,989.6
2017-07-31T17:07:06.094Z,989.6
2017-07-31T17:08:07.503Z,989.6
2017-07-31T17:09:08.913Z,989.6
2017-07-31T17:10:10.415Z,989.6
2017-07-31T17:11:11.825Z,989.6
2017-07-31T17:12:13.244Z,989.6
2017-07-31T17:13:14.813Z,989.6
2017-07-31T17:14:16.244Z,989.6
2017-07-31T17:15:17.653Z,989.7
2017-07-31T17:16:19.262Z,989.7
2017-07-31T17:17:20.690Z,989.8
2017-07-31T17:18:22.101Z,989.8
2017-07-31T17:19:23.788Z,989.8
2017-07-31T17:20:25.195Z,989.7
2017-07-31T17:21:26.602Z,989.7
2017-07-31T17:22:28.110Z,989.7
2017-07-31T17:23:29.517Z,989.6
2017-07-31T17:24:30.989Z,989.5
2017-07-31T17:25:32.399Z,989.5
2017-07-31T17:26:33.868Z,989.5
2017-07-31T17:27:35.714Z,989.4
2017-07-31T17:28:37.133Z,989.4
2017-07-31T17:29:38.601Z,989.3
2017-07-31T17:30:40.010Z,989.3
2017-07-31T17:31:41.442Z,989.2
2017-07-31T17:32:42.925Z,989.1
2017-07-31T17:33:44.331Z,989.1
2017-07-31T17:34:45.830Z,989.0
2017-07-31T17:35:47.229Z,989.0
2017-07-31T17:36:48.684Z,988.9
2017-07-31T17:37:50.098Z,989.0
2017-07-31T17:38:51.977Z,989.0
2017-07-31T17:39:53.390Z,989.0
2017-07-31T17:40:54.854Z,988.9
2017-07-31T17:41:56.263Z,988.9
2017-07-31T17:42:57.736Z,988.8
2017-07-31T17:43:59.168Z,988.8
2017-07-31T17:45:00.911Z,988.8
2017-07-31T17:46:02.329Z,988.8
2017-07-31T17:47:03.749Z,988.7
2017-07-31T17:48:05.357Z,988.8
2017-07-31T17:49:06.787Z,988.7
2017-07-31T17:50:08.200Z,988.7
2017-07-31T17:51:09.670Z,988.7
2017-07-31T17:52:11.078Z,988.7
2017-07-31T17:53:12.489Z,988.7
2017-07-31T17:54:13.987Z,988.7
2017-07-31T17:55:15.397Z,988.7
2017-07-31T17:56:16.807Z,988.7
2017-07-31T17:57:18.313Z,988.7
2017-07-31T17:58:19.720Z,988.6
2017-07-31T17:59:21.191Z,988.6
2017-07-31T18:00:22.639Z,988.6
2017-07-31T18:01:24.298Z,988.6
2017-07-31T18:02:25.738Z,988.6
2017-07-31T18:03:27.144Z,988.6
2017-07-31T18:04:28.595Z,988.6
2017-07-31T18:05:30.428Z,988.6
2017-07-31T18:06:31.848Z,988.6
2017-07-31T18:07:33.328Z,988.6
2017-07-31T18:08:34.747Z,988.6
2017-07-31T18:09:36.205Z,988.7
2017-07-31T18:10:37.617Z,988.7
2017-07-31T18:11:39.086Z,988.8
2017-07-31T18:12:40.499Z,988.8
2017-07-31T18:13:41.965Z,988.8
2017-07-31T18:14:43.386Z,988.8
2017-07-31T18:15:44.870Z,988.8
2017-07-31T18:16:46.281Z,988.9
2017-07-31T18:17:47.729Z,988.9
2017-07-31T18:18:49.141Z,988.9
2017-07-31T18:19:50.609Z,988.9
2017-07-31T18:20:52.031Z,989.0
2017-07-31T18:21:53.493Z,989.0
2017-07-31T18:22:54.901Z,989.1
2017-07-31T18:23:56.307Z,989.2
2017-07-31T18:24:57.812Z,989.3
2017-07-31T18:25:59.248Z,989.4
2017-07-31T18:27:00.633Z,989.5
2017-07-31T18:28:02.128Z,989.5
2017-07-31T18:29:03.539Z,989.6
2017-07-31T18:30:04.949Z,989.7
2017-07-31T18:31:06.450Z,989.8
2017-07-31T18:32:07.933Z,989.9
2017-07-31T18:33:09.341Z,989.9
2017-07-31T18:34:11.000Z,990.0
2017-07-31T18:35:12.405Z,990.1
2017-07-31T18:36:13.838Z,990.1
2017-07-31T18:37:15.296Z,990.2
2017-07-31T18:38:16.717Z,990.3
2017-07-31T18:39:18.182Z,990.4
2017-07-31T18:40:19.592Z,990.4
2017-07-31T18:41:21.062Z,990.4
2017-07-31T18:42:22.470Z,990.4
2017-07-31T18:43:23.938Z,990.5
2017-07-31T18:44:25.350Z,990.5
2017-07-31T18:45:26.820Z,990.5
2017-07-31T18:46:28.225Z,990.6
2017-07-31T18:47:29.798Z,990.5
2017-07-31T18:48:31.206Z,990.6
2017-07-31T18:49:32.819Z,990.6
2017-07-31T18:50:34.232Z,990.6
2017-07-31T18:51:35.668Z,990.7
2017-07-31T18:52:37.074Z,990.7
2017-07-31T18:53:38.646Z,990.8
2017-07-31T18:54:40.434Z,990.8
2017-07-31T18:55:42.045Z,990.8
2017-07-31T18:56:43.490Z,990.8
2017-07-31T18:57:44.924Z,990.8
2017-07-31T18:58:46.336Z,990.8
2017-07-31T18:59:47.818Z,990.9
2017-07-31T19:00:49.216Z,990.9
2017-07-31T19:01:50.756Z,990.9
2017-07-31T19:02:52.157Z,990.8
2017-07-31T19:03:53.566Z,990.8
2017-07-31T19:04:55.025Z,990.8
2017-07-31T19:05:56.447Z,990.8
2017-07-31T19:06:57.874Z,990.8
2017-07-31T19:07:59.332Z,990.7
2017-07-31T19:09:00.732Z,990.7
2017-07-31T19:10:02.141Z,990.7
2017-07-31T19:11:04.671Z,990.7
2017-07-31T19:12:06.237Z,990.6
2017-07-31T19:13:07.639Z,990.6
2017-07-31T19:14:09.195Z,990.6
2017-07-31T19:15:10.598Z,990.6
2017-07-31T19:16:12.188Z,990.6
2017-07-31T19:17:13.598Z,990.6
2017-07-31T19:18:15.339Z,990.7
2017-07-31T19:19:16.849Z,990.7
2017-07-31T19:20:18.452Z,990.6
2017-07-31T19:21:19.860Z,990.7
2017-07-31T19:22:21.435Z,990.6
2017-07-31T19:23:22.839Z,990.6
2017-07-31T19:24:24.542Z,990.7
2017-07-31T19:25:25.949Z,990.6
2017-07-31T19:26:27.607Z,990.6
2017-07-31T19:27:29.012Z,990.6
2017-07-31T19:28:30.412Z,990.6
2017-07-31T19:29:32.148Z,990.6
2017-07-31T19:30:33.550Z,990.6
2017-07-31T19:31:34.988Z,990.5
2017-07-31T19:32:36.659Z,990.5
2017-07-31T19:33:38.059Z,990.5
2017-07-31T19:34:39.470Z,990.5
2017-07-31T19:35:41.184Z,990.5
2017-07-31T19:36:42.588Z,990.4
2017-07-31T19:37:44.270Z,990.4
2017-07-31T19:38:45.673Z,990.4
2017-07-31T19:39:47.080Z,990.4
2017-07-31T19:40:48.796Z,990.4
2017-07-31T19:41:50.200Z,990.4
2017-07-31T19:42:51.623Z,990.3
2017-07-31T19:43:53.322Z,990.4
2017-07-31T19:44:54.725Z,990.3
2017-07-31T19:45:56.406Z,990.2
2017-07-31T19:46:57.807Z,990.2
2017-07-31T19:47:59.493Z,990.2
2017-07-31T19:49:00.927Z,990.3
2017-07-31T19:50:02.574Z,990.2
2017-07-31T19:51:03.984Z,990.2